createdAt,value
2022-10-31T00:03:46.250Z,11.27
2022-10-31T00:08:46.137Z,11.19
2022-10-31T00:13:46.311Z,11.14
2022-10-31T00:18:46.058Z,11.10
2022-10-31T00:23:46.093Z,11.10
2022-10-31T00:28:45.931Z,11.07
2022-10-31T00:33:45.874Z,11.14
2022-10-31T00:38:45.776Z,10.98
2022-10-31T00:43:45.745Z,10.94
2022-10-31T00:48:45.635Z,10.86
2022-10-31T00:53:45.549Z,10.80
2022-10-31T00:58:45.485Z,10.78
2022-10-31T01:03:45.448Z,10.70
2022-10-31T01:08:45.372Z,10.55
2022-10-31T01:13:45.330Z,10.56
2022-10-31T01:18:45.247Z,10.52
2022-10-31T01:23:45.186Z,10.47
2022-10-31T01:28:45.216Z,10.51
2022-10-31T01:33:45.027Z,10.51
2022-10-31T01:38:44.987Z,10.59
2022-10-31T01:43:44.918Z,10.47
2022-10-31T01:48:44.876Z,10.59
2022-10-31T01:53:44.763Z,10.59
2022-10-31T01:58:44.749Z,10.42
2022-10-31T02:03:44.666Z,10.53
2022-10-31T02:08:44.627Z,10.53
2022-10-31T02:13:44.526Z,10.53
2022-10-31T02:18:44.467Z,10.53
2022-10-31T02:23:47.811Z,10.52
2022-10-31T02:28:45.453Z,10.37
2022-10-31T02:33:44.244Z,10.32
2022-10-31T02:38:44.195Z,10.32
2022-10-31T02:43:44.130Z,10.33
2022-10-31T02:48:44.086Z,10.21
2022-10-31T02:53:43.991Z,10.17
2022-10-31T02:58:43.952Z,10.14
2022-10-31T03:03:43.856Z,10.10
2022-10-31T03:08:43.792Z,10.14
2022-10-31T03:13:43.741Z,10.17
2022-10-31T03:18:43.669Z,10.03
2022-10-31T03:23:43.617Z,10.03
2022-10-31T03:28:43.542Z,9.93
2022-10-31T03:33:43.499Z,9.83
2022-10-31T03:38:43.405Z,9.88
2022-10-31T03:43:43.452Z,9.81
2022-10-31T03:48:43.401Z,9.73
2022-10-31T03:53:43.255Z,9.73
2022-10-31T03:58:43.294Z,9.67
2022-10-31T04:03:43.146Z,9.58
2022-10-31T04:08:43.053Z,9.66
2022-10-31T04:13:42.947Z,9.56
2022-10-31T04:18:42.905Z,9.45
2022-10-31T04:23:42.791Z,9.46
2022-10-31T04:28:42.727Z,9.45
2022-10-31T04:33:42.706Z,9.35
2022-10-31T04:38:42.629Z,9.40
2022-10-31T04:43:42.520Z,9.30
2022-10-31T04:48:42.449Z,9.27
2022-10-31T04:53:42.411Z,9.24
2022-10-31T04:58:42.324Z,9.32
2022-10-31T05:03:42.286Z,9.23
2022-10-31T05:08:42.223Z,9.13
2022-10-31T05:13:42.130Z,9.10
2022-10-31T05:18:42.100Z,9.09
2022-10-31T05:23:45.934Z,9.12
2022-10-31T05:28:42.957Z,8.93
2022-10-31T05:33:41.834Z,8.84
2022-10-31T05:38:41.766Z,8.86
2022-10-31T05:43:41.707Z,8.88
2022-10-31T05:48:41.643Z,8.87
2022-10-31T05:53:41.585Z,8.76
2022-10-31T05:58:41.495Z,8.86
2022-10-31T06:03:41.463Z,8.84
2022-10-31T06:08:41.365Z,8.83
2022-10-31T06:13:41.307Z,8.93
2022-10-31T06:18:41.267Z,9.06
2022-10-31T06:23:41.192Z,9.01
2022-10-31T06:28:41.175Z,9.13
2022-10-31T06:33:41.096Z,9.25
2022-10-31T06:38:41.068Z,9.48
2022-10-31T06:43:40.972Z,9.96
2022-10-31T06:48:40.895Z,10.46
2022-10-31T06:53:40.777Z,10.86
2022-10-31T06:58:40.715Z,11.36
2022-10-31T07:03:40.675Z,11.52
2022-10-31T07:08:40.613Z,11.90
2022-10-31T07:13:40.506Z,11.96
2022-10-31T07:18:40.475Z,12.06
2022-10-31T07:23:40.397Z,12.37
2022-10-31T07:28:40.329Z,12.66
2022-10-31T07:33:40.227Z,12.89
2022-10-31T07:38:40.196Z,13.22
2022-10-31T07:43:40.149Z,13.40
2022-10-31T07:48:40.047Z,13.58
2022-10-31T07:53:40.144Z,13.51
2022-10-31T07:58:39.912Z,14.12
2022-10-31T08:03:39.834Z,13.80
2022-10-31T08:08:39.772Z,13.07
2022-10-31T08:13:39.721Z,13.09
2022-10-31T08:18:39.692Z,13.87
2022-10-31T08:23:39.655Z,14.27
2022-10-31T08:28:39.503Z,14.02
2022-10-31T08:33:39.482Z,13.74
2022-10-31T08:38:39.392Z,14.04
2022-10-31T08:43:39.314Z,14.47
2022-10-31T08:48:39.255Z,14.25
2022-10-31T08:53:39.244Z,15.08
2022-10-31T08:58:40.337Z,15.39
2022-10-31T09:03:39.044Z,15.54
2022-10-31T09:08:38.988Z,15.61
2022-10-31T09:13:41.393Z,16.77
2022-10-31T09:18:38.878Z,17.29
2022-10-31T09:23:38.790Z,17.84
2022-10-31T09:28:38.795Z,18.29
2022-10-31T09:33:38.708Z,18.47
2022-10-31T09:38:38.615Z,19.11
2022-10-31T09:43:38.556Z,19.36
2022-10-31T09:48:38.481Z,19.46
2022-10-31T09:53:38.414Z,19.57
2022-10-31T09:58:39.088Z,20.06
2022-10-31T10:03:38.329Z,18.21
2022-10-31T10:08:38.321Z,18.21
2022-10-31T10:13:38.125Z,19.39
2022-10-31T10:18:38.071Z,19.86
2022-10-31T10:23:38.053Z,20.23
2022-10-31T10:28:37.932Z,19.79
2022-10-31T10:33:37.870Z,19.66
2022-10-31T10:38:37.806Z,19.73
2022-10-31T10:43:37.818Z,19.70
2022-10-31T10:48:37.749Z,19.68
2022-10-31T10:53:37.676Z,19.61
2022-10-31T10:58:37.664Z,19.98
2022-10-31T11:03:37.572Z,20.68
2022-10-31T11:08:37.468Z,20.93
2022-10-31T11:13:37.360Z,21.23
2022-10-31T11:18:37.358Z,21.02
2022-10-31T11:23:37.223Z,20.95
2022-10-31T11:28:37.154Z,21.20
2022-10-31T11:33:37.059Z,21.32
2022-10-31T11:38:37.025Z,21.54
2022-10-31T11:43:36.931Z,21.67
2022-10-31T11:48:36.895Z,21.95
2022-10-31T11:53:37.103Z,21.54
2022-10-31T11:58:36.806Z,20.96
2022-10-31T12:03:36.679Z,20.91
2022-10-31T12:08:36.624Z,20.98
2022-10-31T12:13:36.567Z,21.34
2022-10-31T12:18:36.485Z,21.09
2022-10-31T12:23:36.416Z,20.96
2022-10-31T12:28:39.977Z,21.19
2022-10-31T12:33:37.380Z,21.36
2022-10-31T12:38:36.218Z,21.39
2022-10-31T12:43:36.193Z,21.63
2022-10-31T12:48:36.131Z,21.27
2022-10-31T12:53:36.030Z,21.50
2022-10-31T12:58:35.984Z,21.63
2022-10-31T13:03:35.881Z,21.71
2022-10-31T13:08:35.909Z,21.39
2022-10-31T13:13:35.745Z,20.68
2022-10-31T13:18:35.702Z,21.16
2022-10-31T13:23:51.944Z,21.04
2022-10-31T13:28:36.607Z,21.41
2022-10-31T13:33:35.495Z,20.91
2022-10-31T13:38:35.437Z,20.71
2022-10-31T13:43:35.357Z,20.86
2022-10-31T13:48:35.331Z,20.98
2022-10-31T13:53:35.228Z,21.24
2022-10-31T13:58:35.169Z,20.98
2022-10-31T14:03:58.391Z,21.13
2022-10-31T14:08:36.046Z,20.96
2022-10-31T14:13:34.961Z,20.83
2022-10-31T14:18:34.901Z,21.01
2022-10-31T14:23:34.850Z,20.84
2022-10-31T14:28:34.772Z,20.90
2022-10-31T14:33:34.700Z,20.80
2022-10-31T14:38:34.651Z,20.56
2022-10-31T14:43:34.594Z,20.20
2022-10-31T14:48:34.549Z,19.98
2022-10-31T14:53:34.445Z,19.88
2022-10-31T15:03:34.335Z,19.53
2022-10-31T15:08:34.266Z,19.10
2022-10-31T15:13:34.253Z,18.91
2022-10-31T15:18:34.146Z,19.20
2022-10-31T15:23:34.077Z,18.92
2022-10-31T15:28:34.000Z,18.40
2022-10-31T15:33:38.711Z,18.39
2022-10-31T15:38:34.848Z,18.62
2022-10-31T15:43:33.778Z,18.34
2022-10-31T15:48:33.750Z,17.85
2022-10-31T15:53:33.632Z,17.30
2022-10-31T15:58:33.609Z,17.22
2022-10-31T16:03:33.507Z,16.93
2022-10-31T16:08:33.474Z,16.75
2022-10-31T16:13:33.400Z,17.14
2022-10-31T16:18:33.312Z,16.99
2022-10-31T16:23:33.462Z,16.65
2022-10-31T16:28:35.635Z,16.53
2022-10-31T16:33:34.155Z,16.63
2022-10-31T16:38:33.122Z,17.29
2022-10-31T16:43:33.327Z,17.00
2022-10-31T16:48:33.052Z,16.67
2022-10-31T16:53:32.917Z,16.12
2022-10-31T16:58:32.807Z,15.68
2022-10-31T17:03:32.833Z,15.39
2022-10-31T17:08:32.692Z,15.27
2022-10-31T17:13:32.835Z,15.12
2022-10-31T17:18:32.580Z,15.01
2022-10-31T17:23:32.696Z,14.88
2022-10-31T17:28:32.663Z,14.74
2022-10-31T17:33:32.701Z,14.57
2022-10-31T17:38:32.543Z,14.54
2022-10-31T17:43:32.191Z,14.53
2022-10-31T17:48:32.137Z,14.44
2022-10-31T17:53:32.287Z,14.29
2022-10-31T17:58:32.070Z,14.24
2022-10-31T18:03:31.959Z,14.32
2022-10-31T18:08:31.851Z,14.42
2022-10-31T18:13:31.825Z,14.42
2022-10-31T18:18:31.800Z,14.32
2022-10-31T18:23:31.638Z,14.39
2022-10-31T18:28:31.578Z,14.53
2022-10-31T18:33:31.505Z,14.49
2022-10-31T18:38:31.466Z,14.64
2022-10-31T18:43:31.373Z,14.53
2022-10-31T18:48:31.355Z,14.37
2022-10-31T18:53:31.517Z,14.38
2022-10-31T18:58:31.174Z,14.37
2022-10-31T19:03:31.281Z,14.35
2022-10-31T19:08:31.037Z,14.13
2022-10-31T19:13:31.036Z,14.12
2022-10-31T19:18:30.893Z,13.87
2022-10-31T19:23:30.900Z,13.84
2022-10-31T19:28:30.805Z,13.71
2022-10-31T19:33:34.979Z,13.54
2022-10-31T19:38:31.646Z,13.73
2022-10-31T19:43:30.708Z,13.99
2022-10-31T19:48:30.523Z,13.49
2022-10-31T19:53:30.487Z,13.88
2022-10-31T19:58:30.386Z,13.40
2022-10-31T20:03:30.323Z,13.14
2022-10-31T20:08:30.257Z,13.00
2022-10-31T20:13:30.203Z,12.99
2022-10-31T20:18:30.167Z,12.92
2022-10-31T20:23:30.122Z,12.88
2022-10-31T20:28:29.984Z,12.84
2022-10-31T20:33:29.923Z,13.15
2022-10-31T20:38:29.927Z,13.04
2022-10-31T20:43:30.246Z,12.87
2022-10-31T20:48:29.777Z,12.89
2022-10-31T20:53:29.728Z,12.88
2022-10-31T20:58:29.634Z,12.93
2022-10-31T21:03:29.529Z,12.96
2022-10-31T21:08:29.504Z,12.95
2022-10-31T21:13:29.495Z,12.92
2022-10-31T21:18:29.349Z,12.85
2022-10-31T21:23:29.288Z,12.69
2022-10-31T21:28:29.245Z,12.48
2022-10-31T21:33:29.177Z,12.41
2022-10-31T21:38:29.116Z,12.44
2022-10-31T21:43:29.071Z,12.45
2022-10-31T21:48:28.955Z,12.39
2022-10-31T21:53:28.897Z,12.31
2022-10-31T21:58:28.810Z,12.29
2022-10-31T22:03:28.798Z,12.05
2022-10-31T22:08:28.677Z,11.94
2022-10-31T22:13:28.655Z,11.86
2022-10-31T22:18:28.663Z,11.96
2022-10-31T22:23:28.515Z,11.96
2022-10-31T22:28:28.424Z,11.96
2022-10-31T22:33:28.339Z,11.80
2022-10-31T22:38:28.378Z,11.75
2022-10-31T22:43:28.221Z,11.72
2022-10-31T22:48:28.149Z,11.68
2022-10-31T22:53:28.084Z,11.61
2022-10-31T22:58:28.009Z,11.57
2022-10-31T23:03:27.948Z,11.56
2022-10-31T23:08:27.886Z,11.47
2022-10-31T23:13:27.870Z,11.70
2022-10-31T23:18:48.531Z,12.16
2022-10-31T23:23:28.692Z,12.26
2022-10-31T23:28:27.641Z,12.34
2022-10-31T23:33:31.321Z,12.42
2022-10-31T23:38:27.513Z,12.42
2022-10-31T23:43:27.462Z,12.29
2022-10-31T23:48:27.357Z,12.30
2022-10-31T23:53:27.389Z,12.19
2022-10-31T23:58:27.231Z,12.12
